Terminal Aerodrome Forecast
Issued by NWS

Home | Current Version | Previous Version | Text Only | Print | Product List | Glossary On
Versions: 1 2 3 4 5 6 7 8 9 10 11 12 13 14 15 16
000
FTUS42 KGSP 280800 AAA
TAFAND
TAF AMD
KAND 280805Z 2808/2906 26010KT P6SM BKN160
      TEMPO 2808/2810 6SM -SHRA OVC040
     FM281100 26008KT P6SM SCT150
     FM281600 28013G20KT P6SM FEW060
     FM290000 30009KT P6SM FEW250
     FM290500 32005KT P6SM FEW250=

USA.gov is the U.S. government's official web portal to all federal, state and local government web resources and services.